Marion, Massachusetts
Current Conditions -  °F | °C
As of 10:53 AM on Thursday 30 Oct 2014 (Local Time) from KEWB Reporting Station
Clear Clear  
Wind Chill: 57°   Ceiling: Unl
Heat Index: 57°   Visibility: 10mi
Dew Point: 40°   Wind: 10mph
Humidity: 53%   Direction: 290°WNW
Pressure: 29.94"   Gusts: NA
Location:  41.7°N, 70.76°W
Report Text: KEWB 301453Z 29009KT 10SM CLR 14/04 A2994 RMK AO2 SLP137 T01390044 51002
Loading
Personal Weather Stations






























Interactive Weather Map
Tropical Storm Tracking
New forecast layout! Learn more

10-Day Weather Forecast

Advertisements
Track Severe Weather on mobile